createdAt,value
2019-02-27T00:01:53.380Z,4.86
2019-02-27T00:04:23.259Z,4.87
2019-02-27T00:06:54.312Z,4.75
2019-02-27T00:09:23.982Z,4.61
2019-02-27T00:11:55.153Z,4.46
2019-02-27T00:14:24.719Z,4.41
2019-02-27T00:16:54.283Z,4.49
2019-02-27T00:19:23.922Z,4.41
2019-02-27T00:22:14.930Z,4.44
2019-02-27T00:24:44.102Z,4.39
2019-02-27T00:27:14.721Z,4.30
2019-02-27T00:29:44.838Z,4.24
2019-02-27T00:32:15.767Z,4.17
2019-02-27T00:34:46.064Z,4.16
2019-02-27T00:37:18.741Z,4.13
2019-02-27T00:39:46.956Z,4.17
2019-02-27T00:42:19.514Z,4.17
2019-02-27T00:44:47.839Z,4.25
2019-02-27T00:47:20.183Z,4.16
2019-02-27T00:49:48.739Z,4.14
2019-02-27T00:52:18.862Z,4.05
2019-02-27T00:54:48.553Z,4.00
2019-02-27T00:57:20.466Z,3.95
2019-02-27T00:59:49.905Z,3.90
2019-02-27T01:02:21.013Z,3.97
2019-02-27T01:04:50.565Z,3.96
2019-02-27T01:07:20.665Z,3.93
2019-02-27T01:09:51.872Z,3.92
2019-02-27T01:12:22.884Z,3.78
2019-02-27T01:14:53.654Z,3.75
2019-02-27T01:17:23.930Z,3.72
2019-02-27T01:19:53.988Z,3.67
2019-02-27T01:22:23.606Z,3.59
2019-02-27T01:24:53.203Z,3.47
2019-02-27T01:27:22.823Z,3.34
2019-02-27T01:29:52.407Z,3.30
2019-02-27T01:32:23.525Z,3.39
2019-02-27T01:34:53.109Z,3.14
2019-02-27T01:37:22.690Z,2.98
2019-02-27T01:39:52.297Z,2.95
2019-02-27T01:42:22.063Z,3.01
2019-02-27T01:44:51.612Z,2.93
2019-02-27T01:47:22.739Z,2.97
2019-02-27T01:49:52.347Z,3.05
2019-02-27T01:52:21.930Z,3.06
2019-02-27T01:54:51.599Z,3.15
2019-02-27T01:57:21.189Z,3.26
2019-02-27T01:59:51.241Z,3.32
2019-02-27T02:02:20.823Z,3.32
2019-02-27T02:04:53.129Z,3.32
2019-02-27T02:07:21.799Z,3.34
2019-02-27T02:09:52.130Z,3.28
2019-02-27T02:12:24.044Z,3.16
2019-02-27T02:14:58.079Z,3.01
2019-02-27T02:17:54.082Z,3.09
2019-02-27T02:20:28.161Z,3.05
2019-02-27T02:23:02.536Z,3.02
2019-02-27T02:25:36.624Z,3.00
2019-02-27T02:28:12.138Z,3.10
2019-02-27T02:30:46.814Z,3.09
2019-02-27T02:33:20.951Z,3.12
2019-02-27T02:35:55.360Z,3.02
2019-02-27T02:38:29.397Z,2.74
2019-02-27T02:41:08.025Z,2.86
2019-02-27T02:43:41.479Z,2.84
2019-02-27T02:46:15.044Z,2.89
2019-02-27T02:48:49.080Z,2.91
2019-02-27T02:51:28.701Z,2.90
2019-02-27T02:54:01.706Z,2.73
2019-02-27T02:56:35.332Z,2.67
2019-02-27T02:59:09.368Z,2.57
2019-02-27T03:01:45.656Z,2.55
2019-02-27T03:04:20.100Z,2.52
2019-02-27T03:06:54.189Z,2.49
2019-02-27T03:09:30.825Z,2.49
2019-02-27T03:12:06.906Z,2.50
2019-02-27T03:14:40.958Z,2.48
2019-02-27T03:17:19.189Z,2.45
2019-02-27T03:22:29.964Z,2.42
2019-02-27T03:25:05.487Z,2.36
2019-02-27T03:27:39.845Z,2.34
2019-02-27T03:30:36.131Z,2.37
2019-02-27T03:35:48.565Z,2.37
2019-02-27T03:38:24.070Z,2.32
2019-02-27T03:40:58.397Z,2.22
2019-02-27T03:43:32.779Z,2.17
2019-02-27T03:46:24.633Z,1.97
2019-02-27T03:49:03.151Z,1.92
2019-02-27T03:54:13.196Z,2.06
2019-02-27T03:57:06.257Z,2.00
2019-02-27T04:02:21.016Z,2.01
2019-02-27T04:04:55.041Z,1.88
2019-02-27T04:07:46.893Z,1.85
2019-02-27T04:10:16.484Z,1.75
2019-02-27T04:12:51.385Z,1.75
2019-02-27T04:15:18.002Z,1.77
2019-02-27T04:20:24.998Z,1.82
2019-02-27T04:22:54.585Z,1.83
2019-02-27T04:25:31.146Z,1.89
2019-02-27T04:27:56.938Z,1.91
2019-02-27T04:30:35.491Z,1.94
2019-02-27T04:33:05.063Z,1.90
2019-02-27T04:35:39.185Z,1.97
2019-02-27T04:38:05.921Z,1.99
2019-02-27T04:40:38.672Z,1.97
2019-02-27T04:43:08.302Z,1.79
2019-02-27T04:45:40.507Z,1.77
2019-02-27T04:48:10.121Z,1.68
2019-02-27T04:50:45.434Z,1.68
2019-02-27T04:53:14.995Z,1.59
2019-02-27T04:55:44.741Z,1.58
2019-02-27T04:58:14.323Z,1.50
2019-02-27T05:00:45.838Z,1.46
2019-02-27T05:03:16.576Z,1.43
2019-02-27T05:05:46.137Z,1.50
2019-02-27T05:08:18.080Z,1.44
2019-02-27T05:10:50.414Z,1.46
2019-02-27T05:13:20.875Z,1.44
2019-02-27T05:15:51.038Z,1.43
2019-02-27T05:18:20.635Z,1.44
2019-02-27T05:20:52.899Z,1.42
2019-02-27T05:23:22.470Z,1.46
2019-02-27T05:25:52.065Z,1.52
2019-02-27T05:28:24.540Z,1.42
2019-02-27T05:30:54.113Z,1.27
2019-02-27T05:33:23.979Z,1.24
2019-02-27T05:35:56.960Z,1.24
2019-02-27T05:38:24.865Z,1.26
2019-02-27T05:40:54.439Z,1.26
2019-02-27T05:43:26.960Z,1.23
2019-02-27T05:45:56.712Z,1.29
2019-02-27T05:48:29.336Z,1.31
2019-02-27T05:50:58.885Z,1.30
2019-02-27T05:53:30.037Z,1.32
2019-02-27T05:56:07.092Z,1.29
2019-02-27T05:58:36.648Z,1.23
2019-02-27T06:01:06.237Z,1.19
2019-02-27T06:03:35.883Z,1.05
2019-02-27T06:06:06.788Z,0.96
2019-02-27T06:08:38.086Z,0.99
2019-02-27T06:11:07.814Z,1.03
2019-02-27T06:13:37.364Z,1.02
2019-02-27T06:16:09.225Z,0.90
2019-02-27T06:18:38.254Z,1.01
2019-02-27T06:21:07.817Z,1.05
2019-02-27T06:23:38.426Z,1.10
2019-02-27T06:26:08.396Z,1.04
2019-02-27T06:28:37.989Z,1.03
2019-02-27T06:31:07.555Z,1.06
2019-02-27T06:33:37.155Z,1.05
2019-02-27T06:36:07.778Z,0.99
2019-02-27T06:38:38.195Z,1.04
2019-02-27T06:41:08.523Z,1.12
2019-02-27T06:43:38.077Z,1.19
2019-02-27T06:46:07.668Z,1.29
2019-02-27T06:48:37.629Z,1.39
2019-02-27T06:51:07.208Z,1.37
2019-02-27T06:53:36.768Z,1.49
2019-02-27T06:56:06.450Z,1.66
2019-02-27T06:58:36.031Z,1.87
2019-02-27T07:01:09.131Z,2.03
2019-02-27T07:03:38.709Z,2.16
2019-02-27T07:06:08.264Z,2.32
2019-02-27T07:08:38.624Z,2.48
2019-02-27T07:11:10.785Z,2.63
2019-02-27T07:13:59.340Z,3.37
2019-02-27T07:16:28.951Z,5.56
2019-02-27T07:18:58.599Z,7.77
2019-02-27T07:21:32.438Z,10.09
2019-02-27T07:23:59.760Z,12.58
2019-02-27T07:26:29.342Z,14.64
2019-02-27T07:28:58.993Z,16.21
2019-02-27T07:31:28.602Z,17.25
2019-02-27T07:33:58.184Z,18.41
2019-02-27T07:36:27.777Z,19.51
2019-02-27T07:38:58.192Z,20.30
2019-02-27T07:41:27.954Z,20.77
2019-02-27T07:43:57.535Z,21.06
2019-02-27T07:46:27.169Z,21.70
2019-02-27T07:48:57.324Z,22.65
2019-02-27T07:51:27.018Z,23.43
2019-02-27T07:53:56.672Z,23.80
2019-02-27T07:56:26.218Z,24.54
2019-02-27T07:58:55.819Z,20.63
2019-02-27T08:01:25.648Z,18.50
2019-02-27T08:03:55.286Z,21.96
2019-02-27T08:06:24.920Z,19.63
2019-02-27T08:08:57.128Z,22.49
2019-02-27T08:11:26.549Z,24.28
2019-02-27T08:13:56.661Z,25.04
2019-02-27T08:16:26.332Z,26.04
2019-02-27T08:18:55.923Z,27.66
2019-02-27T08:21:25.511Z,28.05
2019-02-27T08:23:55.282Z,28.60
2019-02-27T08:26:26.364Z,29.08
2019-02-27T08:28:55.939Z,29.40
2019-02-27T08:31:44.865Z,29.37
2019-02-27T08:34:14.464Z,29.02
2019-02-27T08:36:44.072Z,29.61
2019-02-27T08:39:13.671Z,30.41
2019-02-27T08:41:45.885Z,31.15
2019-02-27T08:44:15.496Z,30.31
2019-02-27T08:46:48.112Z,27.35
2019-02-27T08:49:17.678Z,30.53
2019-02-27T08:51:47.251Z,31.23
2019-02-27T08:54:16.913Z,31.76
2019-02-27T08:56:47.226Z,32.37
2019-02-27T08:59:17.509Z,31.15
2019-02-27T09:01:47.136Z,31.92
2019-02-27T09:04:21.143Z,32.33
2019-02-27T09:06:50.726Z,32.81
2019-02-27T09:09:22.631Z,32.64
2019-02-27T09:11:54.900Z,33.43
2019-02-27T09:14:24.595Z,32.77
2019-02-27T09:16:54.201Z,31.51
2019-02-27T09:19:23.809Z,32.77
2019-02-27T09:21:53.389Z,32.84
2019-02-27T09:24:23.020Z,33.26
2019-02-27T09:26:52.847Z,32.97
2019-02-27T09:29:22.524Z,32.59
2019-02-27T09:31:52.135Z,31.17
2019-02-27T09:34:21.804Z,26.88
2019-02-27T09:36:53.038Z,27.44
2019-02-27T09:39:22.712Z,30.27
2019-02-27T09:41:52.459Z,32.70
2019-02-27T09:44:22.065Z,33.07
2019-02-27T09:47:13.578Z,27.63
2019-02-27T09:49:43.157Z,30.40
2019-02-27T09:52:12.769Z,32.22
2019-02-27T09:54:46.794Z,33.39
2019-02-27T09:57:13.654Z,33.99
2019-02-27T09:59:43.225Z,34.88
2019-02-27T10:02:12.834Z,35.88
2019-02-27T10:04:42.462Z,35.89
2019-02-27T10:07:14.584Z,30.65
2019-02-27T10:09:43.587Z,30.76
2019-02-27T10:12:13.183Z,33.40
2019-02-27T10:14:42.820Z,35.09
2019-02-27T10:17:12.410Z,34.58
2019-02-27T10:19:42.035Z,35.93
2019-02-27T10:22:11.613Z,37.27
2019-02-27T10:24:41.250Z,37.47
2019-02-27T10:27:10.824Z,37.26
2019-02-27T10:29:40.494Z,36.54
2019-02-27T10:32:10.150Z,36.40
2019-02-27T10:34:39.723Z,33.06
2019-02-27T10:37:12.938Z,33.16
2019-02-27T10:39:40.672Z,35.64
2019-02-27T10:42:10.267Z,36.10
2019-02-27T10:44:39.867Z,36.47
2019-02-27T10:47:15.803Z,36.64
2019-02-27T10:49:45.417Z,36.02
2019-02-27T10:52:14.997Z,36.65
2019-02-27T10:54:44.596Z,32.51
2019-02-27T10:57:14.212Z,34.64
2019-02-27T10:59:43.786Z,34.37
2019-02-27T11:02:16.490Z,32.05
2019-02-27T11:04:46.156Z,33.74
2019-02-27T11:07:16.816Z,34.55
2019-02-27T11:09:46.473Z,31.33
2019-02-27T11:12:16.133Z,32.85
2019-02-27T11:14:45.726Z,32.52
2019-02-27T11:17:15.707Z,32.63
2019-02-27T11:19:45.336Z,30.05
2019-02-27T11:22:15.137Z,31.53
2019-02-27T11:24:49.070Z,32.68
2019-02-27T11:27:16.916Z,33.54
2019-02-27T11:29:46.625Z,30.58
2019-02-27T11:32:23.024Z,31.20
2019-02-27T11:34:53.109Z,30.49
2019-02-27T11:37:22.847Z,26.50
2019-02-27T11:39:52.457Z,27.79
2019-02-27T11:42:22.310Z,29.17
2019-02-27T11:44:51.939Z,30.51
2019-02-27T11:47:21.627Z,30.01
2019-02-27T11:49:51.195Z,28.56
2019-02-27T11:52:20.764Z,30.04
2019-02-27T11:54:50.362Z,29.33
2019-02-27T11:57:20.126Z,30.36
2019-02-27T11:59:49.692Z,30.83
2019-02-27T12:02:19.498Z,30.61
2019-02-27T12:04:53.476Z,28.53
2019-02-27T12:07:20.450Z,29.06
2019-02-27T12:09:50.063Z,26.71
2019-02-27T12:12:22.500Z,27.80
2019-02-27T12:14:50.963Z,28.86
2019-02-27T12:17:23.201Z,30.34
2019-02-27T12:19:51.890Z,30.77
2019-02-27T12:22:21.495Z,31.18
2019-02-27T12:24:52.854Z,31.89
2019-02-27T12:27:47.360Z,32.79
2019-02-27T12:29:53.656Z,30.99
2019-02-27T12:32:42.742Z,31.58
2019-02-27T12:35:16.242Z,28.70
2019-02-27T12:37:45.827Z,29.83
2019-02-27T12:40:37.791Z,29.90
2019-02-27T12:43:07.391Z,29.86
2019-02-27T12:45:36.990Z,30.67
2019-02-27T12:48:06.529Z,32.23
2019-02-27T12:50:36.337Z,31.08
2019-02-27T12:53:06.610Z,31.81
2019-02-27T12:55:36.515Z,30.11
2019-02-27T12:58:06.497Z,30.84
2019-02-27T13:00:36.883Z,31.73
2019-02-27T13:03:09.321Z,31.57
2019-02-27T13:05:39.355Z,30.80
2019-02-27T13:08:08.912Z,28.74
2019-02-27T13:10:38.815Z,28.73
2019-02-27T13:13:08.422Z,29.68
2019-02-27T13:15:38.299Z,29.53
2019-02-27T13:18:09.481Z,28.12
2019-02-27T13:20:39.111Z,27.65
2019-02-27T13:23:08.693Z,28.13
2019-02-27T13:26:00.434Z,29.19
2019-02-27T13:28:29.578Z,29.86
2019-02-27T13:30:59.142Z,31.11
2019-02-27T13:33:32.900Z,29.58
2019-02-27T13:36:01.615Z,31.22
2019-02-27T13:38:31.207Z,28.11
2019-02-27T13:41:02.532Z,29.12
2019-02-27T13:43:32.266Z,29.08
2019-02-27T13:46:22.743Z,28.16
2019-02-27T13:48:52.590Z,27.63
2019-02-27T13:51:22.148Z,27.16
2019-02-27T13:53:51.741Z,27.51
2019-02-27T13:56:21.340Z,28.84
2019-02-27T13:59:12.618Z,28.31
2019-02-27T14:01:42.526Z,28.08
2019-02-27T14:04:31.394Z,27.56
2019-02-27T14:07:00.992Z,28.97
2019-02-27T14:09:30.601Z,30.07
2019-02-27T14:12:00.550Z,29.23
2019-02-27T14:14:30.150Z,29.66
2019-02-27T14:16:59.725Z,26.90
2019-02-27T14:19:29.344Z,27.17
2019-02-27T14:21:58.971Z,25.22
2019-02-27T14:24:28.552Z,25.37
2019-02-27T14:26:58.374Z,24.79
2019-02-27T14:29:29.870Z,24.42
2019-02-27T14:32:19.214Z,24.23
2019-02-27T14:34:48.801Z,23.78
2019-02-27T14:37:18.421Z,23.25
2019-02-27T14:39:47.989Z,23.23
2019-02-27T14:42:20.495Z,23.34
2019-02-27T14:44:48.868Z,22.76
2019-02-27T14:47:18.525Z,22.54
2019-02-27T14:49:48.086Z,22.98
2019-02-27T14:52:17.679Z,23.15
2019-02-27T14:54:47.297Z,22.92
2019-02-27T14:57:16.898Z,22.82
2019-02-27T14:59:46.509Z,22.73
2019-02-27T15:02:16.538Z,22.71
2019-02-27T15:04:46.116Z,22.71
2019-02-27T15:07:15.788Z,22.13
2019-02-27T15:09:48.868Z,21.82
2019-02-27T15:12:19.431Z,21.87
2019-02-27T15:14:49.884Z,21.95
2019-02-27T15:17:20.443Z,21.60
2019-02-27T15:19:50.549Z,21.44
2019-02-27T15:22:20.624Z,20.84
2019-02-27T15:24:50.913Z,20.48
2019-02-27T15:27:22.405Z,20.63
2019-02-27T15:29:51.831Z,20.81
2019-02-27T15:32:21.456Z,21.13
2019-02-27T15:34:51.026Z,20.98
2019-02-27T15:37:26.343Z,20.95
2019-02-27T15:39:55.931Z,20.79
2019-02-27T15:42:25.515Z,20.76
2019-02-27T15:44:56.603Z,20.70
2019-02-27T15:47:27.043Z,20.41
2019-02-27T15:49:57.908Z,20.30
2019-02-27T15:52:27.480Z,20.46
2019-02-27T15:54:59.295Z,20.52
2019-02-27T15:57:28.388Z,20.54
2019-02-27T15:59:57.956Z,20.52
2019-02-27T16:02:29.214Z,20.51
2019-02-27T16:04:58.949Z,20.29
2019-02-27T16:07:28.789Z,20.33
2019-02-27T16:09:58.362Z,20.10
2019-02-27T16:12:28.062Z,20.11
2019-02-27T16:14:57.942Z,19.71
2019-02-27T16:17:31.422Z,19.67
2019-02-27T16:20:01.505Z,19.30
2019-02-27T16:22:31.538Z,19.44
2019-02-27T16:25:01.268Z,19.37
2019-02-27T16:27:32.210Z,19.25
2019-02-27T16:30:08.789Z,19.18
2019-02-27T16:32:38.360Z,19.02
2019-02-27T16:35:09.435Z,18.93
2019-02-27T16:37:39.185Z,18.76
2019-02-27T16:40:17.606Z,18.69
2019-02-27T16:42:44.898Z,18.60
2019-02-27T16:45:19.226Z,18.51
2019-02-27T16:47:49.003Z,18.43
2019-02-27T16:50:24.753Z,18.32
2019-02-27T16:52:54.036Z,18.17
2019-02-27T16:55:26.201Z,17.98
2019-02-27T16:57:57.730Z,17.73
2019-02-27T17:00:31.850Z,17.33
2019-02-27T17:03:20.758Z,17.02
2019-02-27T17:05:50.318Z,16.49
2019-02-27T17:08:21.414Z,16.29
2019-02-27T17:10:52.625Z,16.04
2019-02-27T17:13:22.195Z,15.78
2019-02-27T17:15:51.795Z,15.69
2019-02-27T17:18:21.447Z,15.53
2019-02-27T17:20:50.991Z,15.29
2019-02-27T17:23:21.668Z,15.12
2019-02-27T17:25:51.327Z,15.04
2019-02-27T17:28:20.918Z,14.94
2019-02-27T17:30:50.510Z,14.82
2019-02-27T17:33:20.098Z,14.67
2019-02-27T17:35:49.673Z,14.48
2019-02-27T17:38:21.636Z,14.36
2019-02-27T17:40:52.495Z,14.23
2019-02-27T17:43:22.247Z,13.95
2019-02-27T17:45:51.853Z,13.89
2019-02-27T17:48:30.581Z,13.90
2019-02-27T17:51:19.428Z,13.69
2019-02-27T17:53:49.069Z,13.43
2019-02-27T17:56:18.737Z,13.41
2019-02-27T17:58:48.318Z,13.22
2019-02-27T18:01:25.104Z,13.16
2019-02-27T18:04:14.349Z,12.53
2019-02-27T18:06:41.947Z,13.01
2019-02-27T18:09:11.581Z,12.92
2019-02-27T18:11:41.178Z,12.95
2019-02-27T18:14:10.873Z,12.80
2019-02-27T18:16:40.435Z,12.66
2019-02-27T18:19:10.047Z,12.56
2019-02-27T18:21:39.655Z,12.29
2019-02-27T18:24:09.157Z,11.99
2019-02-27T18:26:38.768Z,11.81
2019-02-27T18:29:08.378Z,11.87
2019-02-27T18:31:38.037Z,11.82
2019-02-27T18:34:07.605Z,11.74
2019-02-27T18:36:42.737Z,11.68
2019-02-27T18:39:08.743Z,11.58
2019-02-27T18:41:39.743Z,11.54
2019-02-27T18:44:09.521Z,11.48
2019-02-27T18:46:39.115Z,11.41
2019-02-27T18:49:08.704Z,11.12
2019-02-27T18:51:57.564Z,11.18
2019-02-27T18:54:27.166Z,10.96
2019-02-27T18:56:56.761Z,10.77
2019-02-27T18:59:29.394Z,10.87
2019-02-27T19:01:57.687Z,10.71
2019-02-27T19:04:27.313Z,9.93
2019-02-27T19:06:56.981Z,9.89
2019-02-27T19:09:29.267Z,9.95
2019-02-27T19:11:57.853Z,10.08
2019-02-27T19:14:27.440Z,10.04
2019-02-27T19:16:57.020Z,10.14
2019-02-27T19:19:26.729Z,10.12
2019-02-27T19:21:56.357Z,10.10
2019-02-27T19:24:27.489Z,10.15
2019-02-27T19:26:57.208Z,10.10
2019-02-27T19:29:26.822Z,10.04
2019-02-27T19:31:56.653Z,9.95
2019-02-27T19:34:48.040Z,9.92
2019-02-27T19:37:16.973Z,9.92
2019-02-27T19:39:46.638Z,9.79
2019-02-27T19:42:17.796Z,9.74
2019-02-27T19:44:47.422Z,9.56
2019-02-27T19:47:18.442Z,9.50
2019-02-27T19:49:48.312Z,9.47
2019-02-27T19:52:18.045Z,9.47
2019-02-27T19:55:08.773Z,9.50
2019-02-27T19:57:39.299Z,9.35
2019-02-27T20:00:34.239Z,9.34
2019-02-27T20:03:02.236Z,9.25
2019-02-27T20:05:32.318Z,9.15
2019-02-27T20:08:02.589Z,9.03
2019-02-27T20:10:33.469Z,8.91
2019-02-27T20:13:02.992Z,8.85
2019-02-27T20:15:32.757Z,8.87
2019-02-27T20:18:07.912Z,8.63
2019-02-27T20:20:39.877Z,8.40
2019-02-27T20:23:05.217Z,8.51
2019-02-27T20:25:34.783Z,8.44
2019-02-27T20:28:04.519Z,8.44
2019-02-27T20:30:53.580Z,8.41
2019-02-27T20:33:23.400Z,8.37
2019-02-27T20:35:56.693Z,8.29
2019-02-27T20:38:26.791Z,8.17
2019-02-27T20:40:56.348Z,8.19
2019-02-27T20:43:29.460Z,8.09
2019-02-27T20:45:57.466Z,8.12
2019-02-27T20:48:32.246Z,7.52
2019-02-27T20:51:06.822Z,7.48
2019-02-27T20:53:36.914Z,7.40
2019-02-27T20:56:06.489Z,7.41
2019-02-27T20:58:36.095Z,7.41
2019-02-27T21:01:09.881Z,7.53
2019-02-27T21:03:40.473Z,7.51
2019-02-27T21:06:12.778Z,7.56
2019-02-27T21:08:41.413Z,7.57
2019-02-27T21:11:11.028Z,7.36
2019-02-27T21:13:40.627Z,7.36
2019-02-27T21:16:10.298Z,7.36
2019-02-27T21:18:39.850Z,7.30
2019-02-27T21:21:09.500Z,7.40
2019-02-27T21:23:39.019Z,7.15
2019-02-27T21:26:09.687Z,7.14
2019-02-27T21:28:39.307Z,7.14
2019-02-27T21:31:08.969Z,7.16
2019-02-27T21:33:38.515Z,7.15
2019-02-27T21:36:08.158Z,7.00
2019-02-27T21:38:37.740Z,7.01
2019-02-27T21:41:11.460Z,7.12
2019-02-27T21:43:39.978Z,7.09
2019-02-27T21:46:11.734Z,7.21
2019-02-27T21:48:42.435Z,7.17
2019-02-27T21:51:13.701Z,7.14
2019-02-27T21:53:43.389Z,7.08
2019-02-27T21:56:15.204Z,7.02
2019-02-27T21:58:44.695Z,6.80
2019-02-27T22:01:14.551Z,6.66
2019-02-27T22:03:44.346Z,6.50
2019-02-27T22:06:14.028Z,6.40
2019-02-27T22:08:43.945Z,6.38
2019-02-27T22:11:13.745Z,6.31
2019-02-27T22:13:45.269Z,6.23
2019-02-27T22:16:14.826Z,6.24
2019-02-27T22:18:47.057Z,6.26
2019-02-27T22:21:21.977Z,5.77
2019-02-27T22:23:57.196Z,5.81
2019-02-27T22:26:26.807Z,5.61
2019-02-27T22:28:56.397Z,5.57
2019-02-27T22:31:25.980Z,5.59
2019-02-27T22:33:56.214Z,5.59
2019-02-27T22:36:26.616Z,5.65
2019-02-27T22:39:00.195Z,5.72
2019-02-27T22:41:28.977Z,5.77
2019-02-27T22:44:07.421Z,5.71
2019-02-27T22:46:37.004Z,5.42
2019-02-27T22:49:15.309Z,5.22
2019-02-27T22:51:53.317Z,5.19
2019-02-27T22:54:22.925Z,5.20
2019-02-27T22:56:52.508Z,5.33
2019-02-27T22:59:24.759Z,5.00
2019-02-27T23:01:57.592Z,5.02
2019-02-27T23:04:46.518Z,5.13
2019-02-27T23:07:20.535Z,5.22
2019-02-27T23:09:47.459Z,5.30
2019-02-27T23:12:18.779Z,5.24
2019-02-27T23:14:50.266Z,5.06
2019-02-27T23:17:41.011Z,5.19
2019-02-27T23:20:10.988Z,5.19
2019-02-27T23:22:41.934Z,5.20
2019-02-27T23:25:11.970Z,5.33
2019-02-27T23:28:02.077Z,5.43
2019-02-27T23:30:31.763Z,5.40
2019-02-27T23:33:20.700Z,5.37
2019-02-27T23:35:50.874Z,5.16
2019-02-27T23:38:21.191Z,5.04
2019-02-27T23:40:50.759Z,5.00
2019-02-27T23:43:20.591Z,4.91
2019-02-27T23:45:50.150Z,4.85
2019-02-27T23:48:19.875Z,4.73
2019-02-27T23:50:49.482Z,4.65
2019-02-27T23:53:19.057Z,4.69
2019-02-27T23:55:48.624Z,4.61
2019-02-27T23:58:29.463Z,4.71
